Etusivu
METAR-TAF:

METAR-TAF

Lentoasemat :

Río Hato, Panama

Leveyspiiri: 08-22-33N, Pituuspiiri: 080-07-40W, korkeus merenpinnasta: 32 m

Tämänhetkinen sää

Tämä raportti tehtiin 34 minuuttia sitten, kello 12.00 UTC
Tuuli 4 kn pohjoisen/luoteesta
Lämpötila 22°C
Kosteus 83%
Ilmanpaine 1012 hPa
Näkyvyys 10 km tai enemmän
ei pilviä alle 1500 m:ssä eikä cumulonimbus-pilviä

METAR: MPSM 241200Z 33004KT(E) CAVOK 22/19 Q1012

Aika: 07:34 (12:34 UTC)

Sääennuste

Tämä raportti tehtiin 1 tunti ja 34 minuuttia sitten, kello 11.00 UTC
Ennuste voimassa 24. päivästä klo 12 UTC - 25. päivään klo 18 UTC
Tuuli 8 kn luoteesta
Näkyvyys 10 km tai enemmän
Hajanaisia pilviä 2000 ft:n korkeudessa
Tulossa
24. päivästä klo 16 UTC - 24. päivään klo 20 UTC
Tuuli 12 kn pohjoisesta/koillisesta
Ajoittain
24. päivästä klo 21 UTC - 24. päivään klo 23 UTC
Tuuli 16 kn pohjoisen/luoteesta

TAF: MPSM 241100Z 2412/2518 32008KT 9999 SCT020 BECMG 2416/2420 02012KT TEMPO 2421/2423 34016KT

Säähavainnot ja -ennusteet yli 4000 lentoasemalta (METAR- ja TAF-raportit).

Käytössä olevat sääasemat on merkitty karttaan keltaisilla ja punaisilla pisteillä.

Aseta hiiri pisteen päälle nähdäksesi sääaseman nimen.

Klikkaa sitten nähdäksesi säähavainnot ja -ennusteet.

Kartan vaihtaminen: klikkaa mustalla rastilla varustettuja vihreitä pisteitä, niin voit zoomata sisään; viivalla varustettua vihreää pistettä, niin voit zoomata ulos tai vihreitä nuolia, niin pääset viereisille kartoille.


METAR-TAF: